sensor_id;sensor_type;location;lat;lon;timestamp;P1;durP1;ratioP1;P2;durP2;ratioP2
68449;SDS011;67758;39.572;2.652;2023-08-01T00:02:22;9.20;;;3.10;;
68449;SDS011;67758;39.572;2.652;2023-08-01T00:04:48;12.60;;;3.30;;
68449;SDS011;67758;39.572;2.652;2023-08-01T00:07:13;12.80;;;3.53;;
68449;SDS011;67758;39.572;2.652;2023-08-01T00:09:39;12.10;;;3.47;;
68449;SDS011;67758;39.572;2.652;2023-08-01T00:12:04;8.50;;;3.10;;
68449;SDS011;67758;39.572;2.652;2023-08-01T00:14:30;10.80;;;3.40;;
68449;SDS011;67758;39.572;2.652;2023-08-01T00:16:56;11.88;;;3.50;;
68449;SDS011;67758;39.572;2.652;2023-08-01T00:19:22;9.77;;;3.23;;
68449;SDS011;67758;39.572;2.652;2023-08-01T00:21:47;11.93;;;3.67;;
68449;SDS011;67758;39.572;2.652;2023-08-01T00:24:13;10.15;;;3.25;;
68449;SDS011;67758;39.572;2.652;2023-08-01T00:26:42;10.33;;;3.40;;
68449;SDS011;67758;39.572;2.652;2023-08-01T00:29:07;11.00;;;4.30;;
68449;SDS011;67758;39.572;2.652;2023-08-01T00:31:36;9.88;;;3.58;;
68449;SDS011;67758;39.572;2.652;2023-08-01T00:34:02;9.70;;;3.47;;
68449;SDS011;67758;39.572;2.652;2023-08-01T00:36:27;9.75;;;3.40;;
68449;SDS011;67758;39.572;2.652;2023-08-01T00:38:53;11.63;;;3.57;;
68449;SDS011;67758;39.572;2.652;2023-08-01T00:41:18;10.25;;;3.10;;
68449;SDS011;67758;39.572;2.652;2023-08-01T00:43:44;11.83;;;3.83;;
68449;SDS011;67758;39.572;2.652;2023-08-01T00:46:10;9.73;;;3.50;;
68449;SDS011;67758;39.572;2.652;2023-08-01T00:48:35;9.30;;;2.90;;
68449;SDS011;67758;39.572;2.652;2023-08-01T00:51:05;8.23;;;3.10;;
68449;SDS011;67758;39.572;2.652;2023-08-01T00:53:32;7.90;;;3.42;;
68449;SDS011;67758;39.572;2.652;2023-08-01T00:55:58;9.57;;;3.03;;
68449;SDS011;67758;39.572;2.652;2023-08-01T00:58:24;9.95;;;3.75;;
68449;SDS011;67758;39.572;2.652;2023-08-01T01:00:50;10.10;;;3.80;;
68449;SDS011;67758;39.572;2.652;2023-08-01T01:03:15;10.52;;;3.28;;
68449;SDS011;67758;39.572;2.652;2023-08-01T01:06:25;7.72;;;3.20;;
68449;SDS011;67758;39.572;2.652;2023-08-01T01:08:49;11.18;;;3.38;;
68449;SDS011;67758;39.572;2.652;2023-08-01T01:11:14;10.85;;;3.13;;
68449;SDS011;67758;39.572;2.652;2023-08-01T01:13:40;11.63;;;3.67;;
68449;SDS011;67758;39.572;2.652;2023-08-01T01:16:06;8.02;;;3.42;;
68449;SDS011;67758;39.572;2.652;2023-08-01T01:18:31;10.03;;;3.70;;
68449;SDS011;67758;39.572;2.652;2023-08-01T01:20:57;10.00;;;3.40;;
68449;SDS011;67758;39.572;2.652;2023-08-01T01:23:22;12.33;;;3.53;;
68449;SDS011;67758;39.572;2.652;2023-08-01T01:25:51;9.75;;;3.33;;
68449;SDS011;67758;39.572;2.652;2023-08-01T01:28:18;8.73;;;3.15;;
68449;SDS011;67758;39.572;2.652;2023-08-01T01:30:44;8.03;;;3.10;;
68449;SDS011;67758;39.572;2.652;2023-08-01T01:33:10;8.32;;;3.15;;
68449;SDS011;67758;39.572;2.652;2023-08-01T01:35:37;9.18;;;3.20;;
68449;SDS011;67758;39.572;2.652;2023-08-01T01:38:02;7.72;;;3.45;;
68449;SDS011;67758;39.572;2.652;2023-08-01T01:40:31;8.97;;;3.60;;
68449;SDS011;67758;39.572;2.652;2023-08-01T01:42:58;10.98;;;3.33;;
68449;SDS011;67758;39.572;2.652;2023-08-01T01:45:24;12.48;;;3.80;;
68449;SDS011;67758;39.572;2.652;2023-08-01T01:47:50;9.95;;;3.03;;
68449;SDS011;67758;39.572;2.652;2023-08-01T01:50:16;9.73;;;3.30;;
68449;SDS011;67758;39.572;2.652;2023-08-01T01:52:43;10.65;;;3.80;;
68449;SDS011;67758;39.572;2.652;2023-08-01T01:55:09;11.20;;;3.40;;
68449;SDS011;67758;39.572;2.652;2023-08-01T01:57:34;11.13;;;3.40;;
68449;SDS011;67758;39.572;2.652;2023-08-01T02:00:05;11.50;;;4.10;;
68449;SDS011;67758;39.572;2.652;2023-08-01T02:02:31;8.52;;;3.50;;
68449;SDS011;67758;39.572;2.652;2023-08-01T02:04:57;12.13;;;3.80;;
68449;SDS011;67758;39.572;2.652;2023-08-01T02:07:22;9.57;;;3.22;;
68449;SDS011;67758;39.572;2.652;2023-08-01T02:09:48;10.73;;;3.30;;
68449;SDS011;67758;39.572;2.652;2023-08-01T02:12:14;10.40;;;3.35;;
68449;SDS011;67758;39.572;2.652;2023-08-01T02:14:40;10.07;;;3.90;;
68449;SDS011;67758;39.572;2.652;2023-08-01T02:17:06;9.27;;;3.63;;
68449;SDS011;67758;39.572;2.652;2023-08-01T02:19:32;9.55;;;3.58;;
68449;SDS011;67758;39.572;2.652;2023-08-01T02:21:58;10.63;;;3.53;;
68449;SDS011;67758;39.572;2.652;2023-08-01T02:24:24;8.82;;;3.35;;
68449;SDS011;67758;39.572;2.652;2023-08-01T02:26:50;10.53;;;3.50;;
68449;SDS011;67758;39.572;2.652;2023-08-01T02:29:16;10.90;;;4.13;;
68449;SDS011;67758;39.572;2.652;2023-08-01T02:31:42;11.70;;;3.72;;
68449;SDS011;67758;39.572;2.652;2023-08-01T02:34:07;11.80;;;3.63;;
68449;SDS011;67758;39.572;2.652;2023-08-01T02:36:33;9.13;;;3.00;;
68449;SDS011;67758;39.572;2.652;2023-08-01T02:38:58;15.03;;;4.53;;
68449;SDS011;67758;39.572;2.652;2023-08-01T02:41:24;11.73;;;3.58;;
68449;SDS011;67758;39.572;2.652;2023-08-01T02:43:50;10.07;;;3.47;;
68449;SDS011;67758;39.572;2.652;2023-08-01T02:46:15;7.33;;;3.27;;
68449;SDS011;67758;39.572;2.652;2023-08-01T02:48:41;9.80;;;3.25;;
68449;SDS011;67758;39.572;2.652;2023-08-01T02:51:07;12.57;;;3.60;;
68449;SDS011;67758;39.572;2.652;2023-08-01T02:53:37;8.57;;;3.45;;
68449;SDS011;67758;39.572;2.652;2023-08-01T02:56:05;11.82;;;3.72;;
68449;SDS011;67758;39.572;2.652;2023-08-01T02:58:32;10.77;;;3.75;;
68449;SDS011;67758;39.572;2.652;2023-08-01T03:00:58;12.52;;;3.70;;
68449;SDS011;67758;39.572;2.652;2023-08-01T03:03:24;9.60;;;3.23;;
68449;SDS011;67758;39.572;2.652;2023-08-01T03:05:49;8.90;;;3.58;;
68449;SDS011;67758;39.572;2.652;2023-08-01T03:08:15;9.90;;;3.50;;
68449;SDS011;67758;39.572;2.652;2023-08-01T03:10:40;9.55;;;3.50;;
68449;SDS011;67758;39.572;2.652;2023-08-01T03:13:06;10.93;;;3.73;;
68449;SDS011;67758;39.572;2.652;2023-08-01T03:15:32;11.52;;;3.47;;
68449;SDS011;67758;39.572;2.652;2023-08-01T03:18:02;9.75;;;3.53;;
68449;SDS011;67758;39.572;2.652;2023-08-01T03:20:31;10.45;;;3.50;;
68449;SDS011;67758;39.572;2.652;2023-08-01T03:23:00;11.15;;;3.80;;
68449;SDS011;67758;39.572;2.652;2023-08-01T03:25:26;7.63;;;3.42;;
68449;SDS011;67758;39.572;2.652;2023-08-01T03:27:51;10.60;;;3.60;;
68449;SDS011;67758;39.572;2.652;2023-08-01T03:30:17;12.07;;;3.50;;
68449;SDS011;67758;39.572;2.652;2023-08-01T03:32:46;8.05;;;2.97;;
68449;SDS011;67758;39.572;2.652;2023-08-01T03:35:15;10.48;;;3.80;;
68449;SDS011;67758;39.572;2.652;2023-08-01T03:37:40;10.63;;;3.03;;
68449;SDS011;67758;39.572;2.652;2023-08-01T03:40:09;10.77;;;3.53;;
68449;SDS011;67758;39.572;2.652;2023-08-01T03:42:37;10.32;;;4.10;;
68449;SDS011;67758;39.572;2.652;2023-08-01T03:45:03;10.27;;;3.40;;
68449;SDS011;67758;39.572;2.652;2023-08-01T03:47:30;8.55;;;3.05;;
68449;SDS011;67758;39.572;2.652;2023-08-01T03:49:56;11.40;;;3.50;;
68449;SDS011;67758;39.572;2.652;2023-08-01T03:52:21;10.50;;;3.67;;
68449;SDS011;67758;39.572;2.652;2023-08-01T03:54:47;11.47;;;3.57;;
68449;SDS011;67758;39.572;2.652;2023-08-01T03:57:13;11.60;;;3.60;;
68449;SDS011;67758;39.572;2.652;2023-08-01T03:59:39;13.65;;;4.20;;
68449;SDS011;67758;39.572;2.652;2023-08-01T04:02:05;14.23;;;4.07;;
68449;SDS011;67758;39.572;2.652;2023-08-01T04:04:30;9.82;;;3.60;;
68449;SDS011;67758;39.572;2.652;2023-08-01T04:06:56;9.03;;;3.70;;
68449;SDS011;67758;39.572;2.652;2023-08-01T04:09:22;8.98;;;3.72;;
68449;SDS011;67758;39.572;2.652;2023-08-01T04:11:48;14.00;;;4.23;;
68449;SDS011;67758;39.572;2.652;2023-08-01T04:14:13;9.77;;;3.60;;
68449;SDS011;67758;39.572;2.652;2023-08-01T04:16:39;12.20;;;3.83;;
68449;SDS011;67758;39.572;2.652;2023-08-01T04:19:05;13.10;;;4.20;;
68449;SDS011;67758;39.572;2.652;2023-08-01T04:21:31;13.50;;;3.80;;
68449;SDS011;67758;39.572;2.652;2023-08-01T04:23:56;8.10;;;3.47;;
68449;SDS011;67758;39.572;2.652;2023-08-01T04:26:22;10.57;;;4.10;;
68449;SDS011;67758;39.572;2.652;2023-08-01T04:28:48;14.65;;;4.20;;
68449;SDS011;67758;39.572;2.652;2023-08-01T04:31:13;11.97;;;4.20;;
68449;SDS011;67758;39.572;2.652;2023-08-01T04:33:39;9.88;;;4.22;;
68449;SDS011;67758;39.572;2.652;2023-08-01T04:36:05;10.57;;;3.70;;
68449;SDS011;67758;39.572;2.652;2023-08-01T04:38:31;9.27;;;4.05;;
68449;SDS011;67758;39.572;2.652;2023-08-01T04:40:56;16.73;;;5.20;;
68449;SDS011;67758;39.572;2.652;2023-08-01T04:43:22;16.33;;;4.35;;
68449;SDS011;67758;39.572;2.652;2023-08-01T04:45:47;9.77;;;3.50;;
68449;SDS011;67758;39.572;2.652;2023-08-01T04:48:13;10.17;;;4.00;;
68449;SDS011;67758;39.572;2.652;2023-08-01T04:50:38;15.60;;;4.13;;
68449;SDS011;67758;39.572;2.652;2023-08-01T04:53:04;12.00;;;4.40;;
68449;SDS011;67758;39.572;2.652;2023-08-01T04:55:31;12.98;;;4.03;;
68449;SDS011;67758;39.572;2.652;2023-08-01T04:57:57;11.10;;;4.23;;
68449;SDS011;67758;39.572;2.652;2023-08-01T05:00:22;8.63;;;4.00;;
68449;SDS011;67758;39.572;2.652;2023-08-01T05:02:48;12.05;;;4.43;;
68449;SDS011;67758;39.572;2.652;2023-08-01T05:05:14;12.67;;;4.43;;
68449;SDS011;67758;39.572;2.652;2023-08-01T05:07:41;10.73;;;4.22;;
68449;SDS011;67758;39.572;2.652;2023-08-01T05:10:07;10.02;;;4.18;;
68449;SDS011;67758;39.572;2.652;2023-08-01T05:12:33;11.68;;;4.20;;
68449;SDS011;67758;39.572;2.652;2023-08-01T05:14:58;11.40;;;4.50;;
68449;SDS011;67758;39.572;2.652;2023-08-01T05:17:24;15.27;;;5.10;;
68449;SDS011;67758;39.572;2.652;2023-08-01T05:19:49;15.88;;;4.80;;
68449;SDS011;67758;39.572;2.652;2023-08-01T05:22:15;13.48;;;4.28;;
68449;SDS011;67758;39.572;2.652;2023-08-01T05:24:41;11.83;;;4.23;;
68449;SDS011;67758;39.572;2.652;2023-08-01T05:27:06;10.57;;;4.38;;
68449;SDS011;67758;39.572;2.652;2023-08-01T05:29:32;10.97;;;4.27;;
68449;SDS011;67758;39.572;2.652;2023-08-01T05:31:58;9.40;;;3.63;;
68449;SDS011;67758;39.572;2.652;2023-08-01T05:34:23;11.83;;;3.77;;
68449;SDS011;67758;39.572;2.652;2023-08-01T05:36:49;13.03;;;4.30;;
68449;SDS011;67758;39.572;2.652;2023-08-01T05:39:15;22.92;;;4.20;;
68449;SDS011;67758;39.572;2.652;2023-08-01T05:41:42;16.33;;;4.53;;
68449;SDS011;67758;39.572;2.652;2023-08-01T05:44:08;57.50;;;6.57;;
68449;SDS011;67758;39.572;2.652;2023-08-01T05:46:34;12.80;;;4.30;;
68449;SDS011;67758;39.572;2.652;2023-08-01T05:48:59;10.55;;;4.05;;
68449;SDS011;67758;39.572;2.652;2023-08-01T05:51:25;11.37;;;4.30;;
68449;SDS011;67758;39.572;2.652;2023-08-01T05:53:51;7.93;;;4.00;;
68449;SDS011;67758;39.572;2.652;2023-08-01T05:56:16;12.87;;;4.27;;
68449;SDS011;67758;39.572;2.652;2023-08-01T05:58:42;14.82;;;4.55;;
68449;SDS011;67758;39.572;2.652;2023-08-01T06:01:09;12.95;;;4.45;;
68449;SDS011;67758;39.572;2.652;2023-08-01T06:03:37;16.50;;;4.40;;
68449;SDS011;67758;39.572;2.652;2023-08-01T06:06:03;13.00;;;4.40;;
68449;SDS011;67758;39.572;2.652;2023-08-01T06:08:29;12.77;;;4.10;;
68449;SDS011;67758;39.572;2.652;2023-08-01T06:10:54;11.38;;;4.50;;
68449;SDS011;67758;39.572;2.652;2023-08-01T06:13:20;10.73;;;4.27;;
68449;SDS011;67758;39.572;2.652;2023-08-01T06:15:46;16.35;;;5.35;;
68449;SDS011;67758;39.572;2.652;2023-08-01T06:18:11;9.13;;;4.43;;
68449;SDS011;67758;39.572;2.652;2023-08-01T06:20:37;10.82;;;6.05;;
68449;SDS011;67758;39.572;2.652;2023-08-01T06:23:03;12.63;;;4.75;;
68449;SDS011;67758;39.572;2.652;2023-08-01T06:25:29;10.73;;;4.53;;
68449;SDS011;67758;39.572;2.652;2023-08-01T06:27:54;11.00;;;4.00;;
68449;SDS011;67758;39.572;2.652;2023-08-01T06:30:20;9.50;;;4.28;;
68449;SDS011;67758;39.572;2.652;2023-08-01T06:32:46;15.73;;;4.27;;
68449;SDS011;67758;39.572;2.652;2023-08-01T06:35:11;17.25;;;4.50;;
68449;SDS011;67758;39.572;2.652;2023-08-01T06:37:37;16.83;;;5.00;;
68449;SDS011;67758;39.572;2.652;2023-08-01T06:40:04;15.05;;;5.05;;
68449;SDS011;67758;39.572;2.652;2023-08-01T06:42:33;14.57;;;5.25;;
68449;SDS011;67758;39.572;2.652;2023-08-01T06:44:58;16.30;;;4.87;;
68449;SDS011;67758;39.572;2.652;2023-08-01T06:47:24;16.97;;;4.80;;
68449;SDS011;67758;39.572;2.652;2023-08-01T06:49:50;16.67;;;4.35;;
68449;SDS011;67758;39.572;2.652;2023-08-01T06:52:15;13.80;;;4.67;;
68449;SDS011;67758;39.572;2.652;2023-08-01T06:54:41;14.25;;;4.50;;
68449;SDS011;67758;39.572;2.652;2023-08-01T06:57:07;11.40;;;4.00;;
68449;SDS011;67758;39.572;2.652;2023-08-01T06:59:32;17.88;;;4.35;;
68449;SDS011;67758;39.572;2.652;2023-08-01T07:01:58;10.23;;;4.17;;
68449;SDS011;67758;39.572;2.652;2023-08-01T07:04:24;9.60;;;3.70;;
68449;SDS011;67758;39.572;2.652;2023-08-01T07:06:49;9.73;;;3.63;;
68449;SDS011;67758;39.572;2.652;2023-08-01T07:09:15;9.93;;;4.10;;
68449;SDS011;67758;39.572;2.652;2023-08-01T07:11:40;11.40;;;4.05;;
68449;SDS011;67758;39.572;2.652;2023-08-01T07:14:06;10.53;;;4.43;;
68449;SDS011;67758;39.572;2.652;2023-08-01T07:16:32;12.02;;;4.10;;
68449;SDS011;67758;39.572;2.652;2023-08-01T07:18:59;13.07;;;3.83;;
68449;SDS011;67758;39.572;2.652;2023-08-01T07:21:25;11.25;;;4.30;;
68449;SDS011;67758;39.572;2.652;2023-08-01T07:23:51;13.67;;;3.90;;
68449;SDS011;67758;39.572;2.652;2023-08-01T07:26:16;10.07;;;3.60;;
68449;SDS011;67758;39.572;2.652;2023-08-01T07:28:42;10.82;;;3.22;;
68449;SDS011;67758;39.572;2.652;2023-08-01T07:31:08;13.75;;;4.03;;
68449;SDS011;67758;39.572;2.652;2023-08-01T07:33:34;12.05;;;4.25;;
68449;SDS011;67758;39.572;2.652;2023-08-01T07:36:00;11.02;;;3.83;;
68449;SDS011;67758;39.572;2.652;2023-08-01T07:38:25;13.57;;;4.57;;
68449;SDS011;67758;39.572;2.652;2023-08-01T07:40:56;9.60;;;4.20;;
68449;SDS011;67758;39.572;2.652;2023-08-01T07:43:22;11.95;;;3.92;;
68449;SDS011;67758;39.572;2.652;2023-08-01T07:45:48;11.82;;;3.70;;
68449;SDS011;67758;39.572;2.652;2023-08-01T07:48:15;11.65;;;4.07;;
68449;SDS011;67758;39.572;2.652;2023-08-01T07:50:41;12.95;;;4.03;;
68449;SDS011;67758;39.572;2.652;2023-08-01T07:53:07;8.45;;;3.45;;
68449;SDS011;67758;39.572;2.652;2023-08-01T07:55:35;10.73;;;3.90;;
68449;SDS011;67758;39.572;2.652;2023-08-01T07:58:01;10.75;;;3.72;;
68449;SDS011;67758;39.572;2.652;2023-08-01T08:00:27;11.70;;;3.63;;
68449;SDS011;67758;39.572;2.652;2023-08-01T08:02:53;8.18;;;3.20;;
68449;SDS011;67758;39.572;2.652;2023-08-01T08:05:19;9.97;;;3.57;;
68449;SDS011;67758;39.572;2.652;2023-08-01T08:07:44;13.80;;;4.10;;
68449;SDS011;67758;39.572;2.652;2023-08-01T08:10:10;11.17;;;4.10;;
68449;SDS011;67758;39.572;2.652;2023-08-01T08:12:35;11.15;;;3.90;;
68449;SDS011;67758;39.572;2.652;2023-08-01T08:15:01;9.80;;;3.87;;
68449;SDS011;67758;39.572;2.652;2023-08-01T08:17:27;13.70;;;4.20;;
68449;SDS011;67758;39.572;2.652;2023-08-01T08:19:53;14.30;;;4.13;;
68449;SDS011;67758;39.572;2.652;2023-08-01T08:22:19;10.52;;;4.15;;
68449;SDS011;67758;39.572;2.652;2023-08-01T08:24:44;13.07;;;4.23;;
68449;SDS011;67758;39.572;2.652;2023-08-01T08:27:10;16.10;;;4.53;;
68449;SDS011;67758;39.572;2.652;2023-08-01T08:29:35;11.73;;;4.03;;
68449;SDS011;67758;39.572;2.652;2023-08-01T08:32:01;11.37;;;3.97;;
68449;SDS011;67758;39.572;2.652;2023-08-01T08:34:27;13.07;;;4.40;;
68449;SDS011;67758;39.572;2.652;2023-08-01T08:36:52;12.37;;;4.37;;
68449;SDS011;67758;39.572;2.652;2023-08-01T08:39:18;10.95;;;3.85;;
68449;SDS011;67758;39.572;2.652;2023-08-01T08:41:47;13.77;;;4.07;;
68449;SDS011;67758;39.572;2.652;2023-08-01T08:44:14;10.00;;;3.67;;
68449;SDS011;67758;39.572;2.652;2023-08-01T08:46:42;16.08;;;4.10;;
68449;SDS011;67758;39.572;2.652;2023-08-01T08:49:09;11.43;;;3.65;;
68449;SDS011;67758;39.572;2.652;2023-08-01T08:51:35;11.60;;;3.40;;
68449;SDS011;67758;39.572;2.652;2023-08-01T08:54:06;10.95;;;3.40;;
68449;SDS011;67758;39.572;2.652;2023-08-01T08:56:34;10.98;;;3.50;;
68449;SDS011;67758;39.572;2.652;2023-08-01T08:59:00;9.02;;;3.30;;
68449;SDS011;67758;39.572;2.652;2023-08-01T09:01:26;11.45;;;3.63;;
68449;SDS011;67758;39.572;2.652;2023-08-01T09:03:52;12.45;;;3.50;;
68449;SDS011;67758;39.572;2.652;2023-08-01T09:06:23;9.43;;;3.15;;
68449;SDS011;67758;39.572;2.652;2023-08-01T09:08:51;13.80;;;4.13;;
68449;SDS011;67758;39.572;2.652;2023-08-01T09:11:21;12.93;;;3.60;;
68449;SDS011;67758;39.572;2.652;2023-08-01T09:13:47;10.40;;;3.35;;
68449;SDS011;67758;39.572;2.652;2023-08-01T09:16:13;8.65;;;3.60;;
68449;SDS011;67758;39.572;2.652;2023-08-01T09:18:50;7.80;;;3.70;;
68449;SDS011;67758;39.572;2.652;2023-08-01T09:21:22;10.82;;;3.72;;
68449;SDS011;67758;39.572;2.652;2023-08-01T09:23:48;13.63;;;3.97;;
68449;SDS011;67758;39.572;2.652;2023-08-01T09:26:16;10.98;;;4.35;;
68449;SDS011;67758;39.572;2.652;2023-08-01T09:28:43;10.37;;;3.43;;
68449;SDS011;67758;39.572;2.652;2023-08-01T09:31:10;11.13;;;3.53;;
68449;SDS011;67758;39.572;2.652;2023-08-01T09:33:39;12.93;;;4.22;;
68449;SDS011;67758;39.572;2.652;2023-08-01T09:36:09;11.75;;;4.28;;
68449;SDS011;67758;39.572;2.652;2023-08-01T09:38:35;9.50;;;4.20;;
68449;SDS011;67758;39.572;2.652;2023-08-01T09:41:05;10.52;;;3.70;;
68449;SDS011;67758;39.572;2.652;2023-08-01T09:43:34;11.25;;;3.92;;
68449;SDS011;67758;39.572;2.652;2023-08-01T09:46:06;15.45;;;3.95;;
68449;SDS011;67758;39.572;2.652;2023-08-01T09:48:32;12.93;;;4.00;;
68449;SDS011;67758;39.572;2.652;2023-08-01T09:51:11;12.07;;;3.85;;
68449;SDS011;67758;39.572;2.652;2023-08-01T09:53:49;10.07;;;3.83;;
68449;SDS011;67758;39.572;2.652;2023-08-01T09:56:18;10.27;;;3.88;;
68449;SDS011;67758;39.572;2.652;2023-08-01T09:58:48;11.00;;;4.07;;
68449;SDS011;67758;39.572;2.652;2023-08-01T10:01:15;12.00;;;3.50;;
68449;SDS011;67758;39.572;2.652;2023-08-01T10:03:44;10.93;;;3.88;;
68449;SDS011;67758;39.572;2.652;2023-08-01T10:06:22;13.05;;;4.65;;
68449;SDS011;67758;39.572;2.652;2023-08-01T10:08:50;13.20;;;4.45;;
68449;SDS011;67758;39.572;2.652;2023-08-01T10:11:18;11.53;;;4.60;;
68449;SDS011;67758;39.572;2.652;2023-08-01T10:13:45;11.35;;;3.95;;
68449;SDS011;67758;39.572;2.652;2023-08-01T10:16:13;14.05;;;4.47;;
68449;SDS011;67758;39.572;2.652;2023-08-01T10:18:39;13.95;;;4.45;;
68449;SDS011;67758;39.572;2.652;2023-08-01T10:21:06;9.05;;;4.10;;
68449;SDS011;67758;39.572;2.652;2023-08-01T10:23:35;12.50;;;4.93;;
68449;SDS011;67758;39.572;2.652;2023-08-01T10:26:01;12.25;;;4.55;;
68449;SDS011;67758;39.572;2.652;2023-08-01T10:28:32;12.30;;;5.00;;
68449;SDS011;67758;39.572;2.652;2023-08-01T10:33:34;12.25;;;4.95;;
68449;SDS011;67758;39.572;2.652;2023-08-01T10:36:00;15.23;;;4.73;;
68449;SDS011;67758;39.572;2.652;2023-08-01T10:38:26;13.80;;;5.03;;
68449;SDS011;67758;39.572;2.652;2023-08-01T10:40:51;12.55;;;4.70;;
68449;SDS011;67758;39.572;2.652;2023-08-01T10:43:23;11.87;;;5.10;;
68449;SDS011;67758;39.572;2.652;2023-08-01T10:46:00;12.52;;;5.45;;
68449;SDS011;67758;39.572;2.652;2023-08-01T10:48:29;9.50;;;4.47;;
68449;SDS011;67758;39.572;2.652;2023-08-01T10:50:55;12.90;;;5.63;;
68449;SDS011;67758;39.572;2.652;2023-08-01T10:53:22;12.93;;;6.10;;
68449;SDS011;67758;39.572;2.652;2023-08-01T10:55:48;11.82;;;5.30;;
68449;SDS011;67758;39.572;2.652;2023-08-01T10:58:14;13.32;;;6.03;;
68449;SDS011;67758;39.572;2.652;2023-08-01T11:00:43;11.60;;;5.67;;
68449;SDS011;67758;39.572;2.652;2023-08-01T11:03:09;11.40;;;6.20;;
68449;SDS011;67758;39.572;2.652;2023-08-01T11:05:35;15.25;;;7.38;;
68449;SDS011;67758;39.572;2.652;2023-08-01T11:08:01;10.30;;;5.23;;
68449;SDS011;67758;39.572;2.652;2023-08-01T11:10:29;10.98;;;6.38;;
68449;SDS011;67758;39.572;2.652;2023-08-01T11:12:56;15.18;;;7.20;;
68449;SDS011;67758;39.572;2.652;2023-08-01T11:15:22;17.33;;;8.57;;
68449;SDS011;67758;39.572;2.652;2023-08-01T11:17:49;18.52;;;9.52;;
68449;SDS011;67758;39.572;2.652;2023-08-01T11:20:17;14.90;;;8.23;;
68449;SDS011;67758;39.572;2.652;2023-08-01T11:22:56;14.30;;;7.10;;
68449;SDS011;67758;39.572;2.652;2023-08-01T11:25:32;13.77;;;6.30;;
68449;SDS011;67758;39.572;2.652;2023-08-01T11:28:09;10.23;;;5.50;;
68449;SDS011;67758;39.572;2.652;2023-08-01T11:30:36;12.18;;;7.47;;
68449;SDS011;67758;39.572;2.652;2023-08-01T11:33:02;16.67;;;9.20;;
68449;SDS011;67758;39.572;2.652;2023-08-01T11:35:38;15.00;;;6.50;;
68449;SDS011;67758;39.572;2.652;2023-08-01T11:38:04;12.00;;;6.90;;
68449;SDS011;67758;39.572;2.652;2023-08-01T11:40:31;13.55;;;6.70;;
68449;SDS011;67758;39.572;2.652;2023-08-01T11:42:57;13.32;;;6.45;;
68449;SDS011;67758;39.572;2.652;2023-08-01T11:45:23;10.98;;;6.05;;
68449;SDS011;67758;39.572;2.652;2023-08-01T11:47:49;17.27;;;7.53;;
68449;SDS011;67758;39.572;2.652;2023-08-01T11:50:20;11.67;;;6.03;;
68449;SDS011;67758;39.572;2.652;2023-08-01T11:52:49;13.20;;;6.63;;
68449;SDS011;67758;39.572;2.652;2023-08-01T11:55:22;10.90;;;6.67;;
68449;SDS011;67758;39.572;2.652;2023-08-01T11:57:54;14.80;;;6.22;;
68449;SDS011;67758;39.572;2.652;2023-08-01T12:00:23;13.70;;;6.78;;
68449;SDS011;67758;39.572;2.652;2023-08-01T12:03:03;13.13;;;6.50;;
68449;SDS011;67758;39.572;2.652;2023-08-01T12:05:32;12.97;;;6.33;;
68449;SDS011;67758;39.572;2.652;2023-08-01T12:08:09;19.38;;;10.02;;
68449;SDS011;67758;39.572;2.652;2023-08-01T12:10:39;15.10;;;7.22;;
68449;SDS011;67758;39.572;2.652;2023-08-01T12:13:21;11.70;;;7.22;;
68449;SDS011;67758;39.572;2.652;2023-08-01T12:15:48;12.48;;;6.40;;
68449;SDS011;67758;39.572;2.652;2023-08-01T12:18:24;11.37;;;7.20;;
68449;SDS011;67758;39.572;2.652;2023-08-01T12:20:51;12.45;;;7.13;;
68449;SDS011;67758;39.572;2.652;2023-08-01T12:23:17;15.55;;;6.97;;
68449;SDS011;67758;39.572;2.652;2023-08-01T12:25:43;12.88;;;6.00;;
68449;SDS011;67758;39.572;2.652;2023-08-01T12:28:09;15.50;;;6.63;;
68449;SDS011;67758;39.572;2.652;2023-08-01T12:30:34;17.48;;;6.95;;
68449;SDS011;67758;39.572;2.652;2023-08-01T12:33:00;12.63;;;6.80;;
68449;SDS011;67758;39.572;2.652;2023-08-01T12:35:26;14.20;;;5.68;;
68449;SDS011;67758;39.572;2.652;2023-08-01T12:37:52;17.77;;;6.78;;
68449;SDS011;67758;39.572;2.652;2023-08-01T12:40:19;13.90;;;6.13;;
68449;SDS011;67758;39.572;2.652;2023-08-01T12:42:44;11.48;;;6.10;;
68449;SDS011;67758;39.572;2.652;2023-08-01T12:45:11;14.48;;;6.95;;
68449;SDS011;67758;39.572;2.652;2023-08-01T12:47:37;13.60;;;6.20;;
68449;SDS011;67758;39.572;2.652;2023-08-01T12:50:02;11.98;;;7.00;;
68449;SDS011;67758;39.572;2.652;2023-08-01T12:52:28;12.60;;;6.30;;
68449;SDS011;67758;39.572;2.652;2023-08-01T12:54:54;11.13;;;5.65;;
68449;SDS011;67758;39.572;2.652;2023-08-01T12:57:19;18.00;;;6.53;;
68449;SDS011;67758;39.572;2.652;2023-08-01T12:59:45;14.38;;;5.80;;
68449;SDS011;67758;39.572;2.652;2023-08-01T13:02:11;12.80;;;6.77;;
68449;SDS011;67758;39.572;2.652;2023-08-01T13:04:36;17.50;;;6.77;;
68449;SDS011;67758;39.572;2.652;2023-08-01T13:07:02;14.82;;;5.82;;
68449;SDS011;67758;39.572;2.652;2023-08-01T13:09:28;10.90;;;6.50;;
68449;SDS011;67758;39.572;2.652;2023-08-01T13:11:53;14.85;;;6.50;;
68449;SDS011;67758;39.572;2.652;2023-08-01T13:14:19;17.33;;;6.87;;
68449;SDS011;67758;39.572;2.652;2023-08-01T13:16:44;12.50;;;6.37;;
68449;SDS011;67758;39.572;2.652;2023-08-01T13:19:10;12.05;;;6.43;;
68449;SDS011;67758;39.572;2.652;2023-08-01T13:21:35;10.80;;;6.10;;
68449;SDS011;67758;39.572;2.652;2023-08-01T13:24:01;11.70;;;5.53;;
68449;SDS011;67758;39.572;2.652;2023-08-01T13:26:32;8.25;;;5.18;;
68449;SDS011;67758;39.572;2.652;2023-08-01T13:28:59;13.48;;;6.10;;
68449;SDS011;67758;39.572;2.652;2023-08-01T13:31:28;15.25;;;5.75;;
68449;SDS011;67758;39.572;2.652;2023-08-01T13:33:54;14.10;;;7.38;;
68449;SDS011;67758;39.572;2.652;2023-08-01T13:36:20;13.90;;;5.97;;
68449;SDS011;67758;39.572;2.652;2023-08-01T13:38:46;16.33;;;6.10;;
68449;SDS011;67758;39.572;2.652;2023-08-01T13:41:11;10.10;;;6.43;;
68449;SDS011;67758;39.572;2.652;2023-08-01T13:43:37;12.25;;;5.18;;
68449;SDS011;67758;39.572;2.652;2023-08-01T13:46:13;12.93;;;6.47;;
68449;SDS011;67758;39.572;2.652;2023-08-01T13:48:43;16.98;;;6.05;;
68449;SDS011;67758;39.572;2.652;2023-08-01T13:51:10;16.42;;;7.05;;
68449;SDS011;67758;39.572;2.652;2023-08-01T13:53:36;16.70;;;5.97;;
68449;SDS011;67758;39.572;2.652;2023-08-01T13:56:09;14.73;;;5.40;;
68449;SDS011;67758;39.572;2.652;2023-08-01T13:58:37;13.73;;;5.40;;
68449;SDS011;67758;39.572;2.652;2023-08-01T14:01:04;13.07;;;5.50;;
68449;SDS011;67758;39.572;2.652;2023-08-01T14:03:36;12.23;;;5.38;;
68449;SDS011;67758;39.572;2.652;2023-08-01T14:06:12;13.45;;;5.78;;
68449;SDS011;67758;39.572;2.652;2023-08-01T14:08:39;15.63;;;5.43;;
68449;SDS011;67758;39.572;2.652;2023-08-01T14:11:06;12.70;;;5.28;;
68449;SDS011;67758;39.572;2.652;2023-08-01T14:13:33;12.23;;;5.70;;
68449;SDS011;67758;39.572;2.652;2023-08-01T14:16:00;10.70;;;4.97;;
68449;SDS011;67758;39.572;2.652;2023-08-01T14:18:27;12.13;;;5.57;;
68449;SDS011;67758;39.572;2.652;2023-08-01T14:20:53;15.50;;;5.77;;
68449;SDS011;67758;39.572;2.652;2023-08-01T14:23:19;11.10;;;6.00;;
68449;SDS011;67758;39.572;2.652;2023-08-01T14:25:45;14.90;;;5.55;;
68449;SDS011;67758;39.572;2.652;2023-08-01T14:28:10;13.40;;;6.17;;
68449;SDS011;67758;39.572;2.652;2023-08-01T14:30:37;21.65;;;7.13;;
68449;SDS011;67758;39.572;2.652;2023-08-01T14:33:03;19.30;;;6.57;;
68449;SDS011;67758;39.572;2.652;2023-08-01T14:35:30;10.43;;;5.63;;
68449;SDS011;67758;39.572;2.652;2023-08-01T14:37:56;10.88;;;5.47;;